Time;durP1;ratioP1;P1;durP2;ratioP2;P2;SDS_P1;SDS_P2;PMS_P1;PMS_P2;Temp;Humidity;BMP_temperature;BMP_pressure;BME280_temperature;BME280_humidity;BME280_pressure;Samples;Min_cycle;Max_cycle;Signal;HPM_P1;HPM_P2
2022/03/21 00:00:44;;;;;;;36.25;23.58;;;13.20;2201.60;;;;;;5134345;27;20098;-78
2022/03/21 00:03:14;;;;;;;32.92;21.10;;;13.20;2201.60;;;;;;5133802;27;20023;-77
2022/03/21 00:05:40;;;;;;;37.22;21.00;;;13.20;2201.60;;;;;;5115703;27;20462;-76
2022/03/21 00:08:06;;;;;;;36.97;21.33;;;13.20;2201.60;;;;;;5133759;27;20026;-77
2022/03/21 00:10:33;;;;;;;35.90;18.95;;;13.20;2201.60;;;;;;5115841;27;20031;-77
2022/03/21 00:13:00;;;;;;;32.53;18.50;;;13.20;2201.60;;;;;;5115778;27;20375;-77
2022/03/21 00:15:27;;;;;;;36.92;17.30;;;13.30;2201.60;;;;;;5134077;27;20030;-78
2022/03/21 00:17:53;;;;;;;35.30;19.63;;;13.20;2201.60;;;;;;5115766;27;20362;-77
2022/03/21 00:20:19;;;;;;;34.42;18.77;;;13.20;2201.60;;;;;;5115632;27;20037;-77
2022/03/21 00:22:45;;;;;;;32.70;14.27;;;13.20;2201.60;;;;;;5134052;27;20019;-77
2022/03/21 00:25:11;;;;;;;24.00;14.30;;;13.20;2201.60;;;;;;5115405;27;20084;-77
2022/03/21 00:27:38;;;;;;;30.70;15.10;;;13.20;2201.60;;;;;;5133976;27;20023;-77
2022/03/21 00:30:05;;;;;;;22.40;13.65;;;13.20;2201.60;;;;;;5115430;27;20027;-77
2022/03/21 00:32:31;;;;;;;25.13;13.30;;;13.20;2201.60;;;;;;5134133;27;20046;-77
2022/03/21 00:34:57;;;;;;;25.65;14.20;;;13.20;2201.60;;;;;;5115345;27;20366;-77
2022/03/21 00:37:24;;;;;;;23.30;13.13;;;13.10;2201.60;;;;;;5115138;27;20076;-76
2022/03/21 00:39:51;;;;;;;21.25;13.93;;;13.10;2201.60;;;;;;5133083;27;20035;-77
2022/03/21 00:42:17;;;;;;;24.15;12.70;;;13.10;2201.60;;;;;;5133591;27;20027;-77
2022/03/21 00:44:43;;;;;;;23.95;13.45;;;13.10;2201.60;;;;;;5133314;27;21076;-77
2022/03/21 00:47:09;;;;;;;21.88;13.48;;;13.10;2201.60;;;;;;5133357;27;20110;-77
2022/03/21 00:49:34;;;;;;;23.67;15.68;;;13.10;2201.60;;;;;;5114101;27;20030;-76
2022/03/21 00:52:00;;;;;;;29.15;15.30;;;13.10;2201.60;;;;;;5115245;27;20114;-75
2022/03/21 00:54:26;;;;;;;24.25;14.48;;;13.10;2201.60;;;;;;5133446;27;20458;-80
2022/03/21 00:56:52;;;;;;;25.45;13.73;;;13.10;2201.60;;;;;;5133176;27;20490;-76
2022/03/21 00:59:17;;;;;;;32.45;18.75;;;13.10;2201.60;;;;;;5133029;27;20145;-76
2022/03/21 01:01:43;;;;;;;23.98;14.82;;;13.10;2201.60;;;;;;5133335;27;20019;-76
2022/03/21 01:04:09;;;;;;;22.35;13.10;;;13.10;2201.60;;;;;;5132876;27;20035;-77
2022/03/21 01:06:35;;;;;;;29.90;13.60;;;13.10;2201.60;;;;;;5133653;27;20023;-76
2022/03/21 01:09:01;;;;;;;21.00;11.85;;;13.10;2201.60;;;;;;5132961;27;20027;-76
2022/03/21 01:11:27;;;;;;;29.33;14.98;;;13.10;2201.60;;;;;;5133467;27;20023;-76
2022/03/21 01:13:53;;;;;;;25.40;13.32;;;13.10;2201.60;;;;;;5114751;27;20019;-77
2022/03/21 01:16:18;;;;;;;19.90;12.02;;;13.10;2201.60;;;;;;5114414;27;20031;-76
2022/03/21 01:18:47;;;;;;;28.45;16.73;;;13.10;2201.60;;;;;;5114748;27;20072;-76
2022/03/21 01:21:13;;;;;;;43.38;22.83;;;13.10;2201.60;;;;;;5132376;27;20065;-77
2022/03/21 01:23:39;;;;;;;45.53;25.85;;;13.10;2201.60;;;;;;5114604;28;20059;-79
2022/03/21 01:26:05;;;;;;;56.55;29.33;;;13.10;2201.60;;;;;;5113680;28;20019;-77
2022/03/21 01:28:31;;;;;;;51.47;28.58;;;13.20;2201.60;;;;;;5114536;28;20027;-77
2022/03/21 01:30:56;;;;;;;57.47;32.45;;;13.20;2201.60;;;;;;5114248;28;20112;-77
2022/03/21 01:33:22;;;;;;;49.70;30.40;;;13.20;2201.60;;;;;;5132969;28;20023;-77
2022/03/21 01:35:48;;;;;;;49.28;29.55;;;13.20;2201.60;;;;;;5095480;28;20074;-76
2022/03/21 01:38:14;;;;;;;50.35;26.67;;;13.30;2201.60;;;;;;5118772;28;20035;-76
2022/03/21 01:40:40;;;;;;;42.95;26.67;;;13.30;2201.60;;;;;;5133027;28;20593;-77
2022/03/21 01:43:10;;;;;;;38.97;24.58;;;13.30;2201.60;;;;;;5114458;28;20076;-78
2022/03/21 01:45:35;;;;;;;52.00;27.52;;;13.40;2201.60;;;;;;5114407;28;20065;-76
2022/03/21 01:48:01;;;;;;;47.80;27.23;;;13.40;2201.60;;;;;;5114470;28;20050;-76
2022/03/21 01:50:27;;;;;;;42.17;25.88;;;13.40;2201.60;;;;;;5114420;28;20527;-75
2022/03/21 01:55:43;;;;;;;38.70;24.20;;;13.40;2201.60;;;;;;5132512;28;20024;-76
2022/03/21 01:55:44;;;;;;;39.20;23.75;;;13.40;2201.60;;;;;;5132637;28;20087;-76
2022/03/21 01:58:16;;;;;;;45.15;28.35;;;13.40;2201.60;;;;;;5114202;28;20037;-76
2022/03/21 02:00:43;;;;;;;46.60;30.63;;;13.40;2201.60;;;;;;5132885;28;20462;-76
2022/03/21 02:03:09;;;;;;;47.95;30.00;;;13.50;2201.60;;;;;;5114257;28;20099;-76
2022/03/21 02:05:37;;;;;;;57.15;31.35;;;13.50;2201.60;;;;;;5114259;28;20389;-76
2022/03/21 02:08:04;;;;;;;58.38;34.88;;;13.50;2201.60;;;;;;5132212;28;20016;-79
2022/03/21 02:10:30;;;;;;;55.13;33.35;;;13.50;2201.60;;;;;;5132665;28;20050;-75
2022/03/21 02:12:56;;;;;;;54.97;36.60;;;13.30;2201.60;;;;;;5132594;28;20023;-76
2022/03/21 02:15:22;;;;;;;61.28;34.13;;;13.40;2201.60;;;;;;5132518;28;20042;-76
2022/03/21 02:18:00;;;;;;;57.47;34.58;;;13.50;2201.60;;;;;;5114216;28;20465;-76
2022/03/21 02:20:29;;;;;;;58.22;35.78;;;13.50;2201.60;;;;;;5132558;28;20023;-79
2022/03/21 02:23:08;;;;;;;75.45;42.35;;;13.50;2201.60;;;;;;5114115;28;20050;-76
2022/03/21 02:25:43;;;;;;;76.90;40.67;;;13.50;2201.60;;;;;;5113979;28;20031;-77
2022/03/21 02:28:15;;;;;;;69.45;42.10;;;13.60;2201.60;;;;;;5116761;27;20023;-76
2022/03/21 02:30:43;;;;;;;72.32;42.50;;;13.60;2201.60;;;;;;5136244;27;20096;-75
2022/03/21 02:33:10;;;;;;;73.40;42.33;;;13.70;2201.60;;;;;;5136464;27;20023;-77
2022/03/21 02:35:36;;;;;;;74.38;43.38;;;;;;;;;;5117723;27;20068;-76
2022/03/21 02:38:03;;;;;;;68.05;39.42;;;;;;;;;;5135516;27;20477;-75
2022/03/21 02:40:29;;;;;;;63.42;36.50;;;;;;;;;;5135562;27;20050;-76
2022/03/21 02:42:55;;;;;;;52.00;29.67;;;;;;;;;;5117179;27;20027;-76
2022/03/21 02:45:21;;;;;;;55.35;31.77;;;38.60;2201.60;;;;;;5135913;27;20031;-76
2022/03/21 02:47:47;;;;;;;57.08;30.95;;;38.70;2201.60;;;;;;5135943;27;20033;-76
2022/03/21 02:50:17;;;;;;;58.72;33.17;;;38.80;2201.60;;;;;;5135806;27;20019;-76
2022/03/21 02:52:46;;;;;;;53.88;30.75;;;38.80;2201.60;;;;;;5117334;27;20023;-75
2022/03/21 02:55:11;;;;;;;53.15;31.67;;;39.00;2201.60;;;;;;5135448;27;20067;-75
2022/03/21 02:57:37;;;;;;;56.10;36.47;;;39.10;2201.60;;;;;;5135770;27;20016;-76
2022/03/21 03:00:04;;;;;;;57.05;37.75;;;39.10;2201.60;;;;;;5135377;27;20027;-76
2022/03/21 03:02:30;;;;;;;63.03;35.58;;;39.10;2201.60;;;;;;5135911;27;20023;-75
2022/03/21 03:04:56;;;;;;;61.13;35.33;;;39.10;2201.60;;;;;;5135296;27;20050;-76
2022/03/21 03:07:21;;;;;;;65.45;39.47;;;39.20;2201.60;;;;;;5117016;27;20024;-76
2022/03/21 03:09:47;;;;;;;54.35;34.40;;;39.10;2201.60;;;;;;5117070;27;20019;-76
2022/03/21 03:12:13;;;;;;;43.75;28.40;;;39.10;2201.60;;;;;;5116966;27;20019;-76
2022/03/21 03:14:38;;;;;;;52.13;31.40;;;39.00;2201.60;;;;;;5116951;27;20019;-76
2022/03/21 03:17:05;;;;;;;58.63;32.40;;;39.10;2201.60;;;;;;5116878;27;20053;-76
2022/03/21 03:19:31;;;;;;;61.97;33.97;;;39.00;2201.60;;;;;;5116913;27;20069;-77
2022/03/21 03:21:57;;;;;;;68.10;37.85;;;39.00;2201.60;;;;;;5135316;27;20402;-76
2022/03/21 03:24:26;;;;;;;67.57;40.13;;;38.90;2201.60;;;;;;5116675;27;20439;-75
2022/03/21 03:26:52;;;;;;;64.35;40.60;;;38.90;2201.60;;;;;;5116835;27;20023;-77
2022/03/21 03:29:18;;;;;;;78.20;45.00;;;38.80;2201.60;;;;;;5133951;27;20535;-76
2022/03/21 03:31:44;;;;;;;76.13;41.97;;;38.80;2201.60;;;;;;5135120;27;20019;-76
2022/03/21 03:34:11;;;;;;;65.30;36.50;;;38.80;2201.60;;;;;;5134996;27;20023;-75
2022/03/21 03:36:38;;;;;;;60.45;33.03;;;38.80;2201.60;;;;;;5116509;27;20069;-76
2022/03/21 03:39:04;;;;;;;43.88;27.83;;;38.80;2201.60;;;;;;5116279;27;20046;-75
2022/03/21 03:41:30;;;;;;;37.55;23.33;;;38.80;2201.60;;;;;;5134721;27;20027;-77
2022/03/21 03:43:56;;;;;;;33.22;19.60;;;38.80;2201.60;;;;;;5116354;27;20095;-76
2022/03/21 03:46:22;;;;;;;35.95;22.15;;;38.80;2201.60;;;;;;5116465;27;20026;-76
2022/03/21 03:48:49;;;;;;;32.63;18.40;;;38.90;2201.60;;;;;;5116244;27;20023;-77
2022/03/21 03:51:15;;;;;;;33.17;19.92;;;39.00;2201.60;;;;;;5116165;27;20046;-77
2022/03/21 03:53:41;;;;;;;42.38;23.33;;;39.10;2201.60;;;;;;5115919;27;20485;-76
2022/03/21 03:56:08;;;;;;;44.42;24.33;;;39.10;2201.60;;;;;;5116215;27;20019;-76
2022/03/21 03:58:37;;;;;;;41.45;22.13;;;39.10;2201.60;;;;;;5134263;27;20024;-77
2022/03/21 04:01:04;;;;;;;45.38;27.33;;;39.10;2201.60;;;;;;5133709;27;20056;-76
2022/03/21 04:03:47;;;;;;;50.60;31.80;;;39.20;2201.60;;;;;;5134180;27;20384;-76
2022/03/21 04:06:17;;;;;;;44.78;25.83;;;39.20;2201.60;;;;;;5115688;27;20055;-76
2022/03/21 04:08:44;;;;;;;37.13;19.45;;;39.20;2201.60;;;;;;5134426;27;20029;-77
2022/03/21 04:11:10;;;;;;;40.45;21.00;;;39.10;2201.60;;;;;;5134361;27;20141;-77
2022/03/21 04:13:36;;;;;;;35.38;21.35;;;39.20;2201.60;;;;;;5115787;27;20171;-77
2022/03/21 04:16:03;;;;;;;41.78;23.75;;;39.20;2201.60;;;;;;5115851;27;20529;-77
2022/03/21 04:18:28;;;;;;;29.40;18.75;;;39.20;2201.60;;;;;;5133795;27;20027;-76
2022/03/21 04:20:54;;;;;;;35.92;20.58;;;39.30;2201.60;;;;;;5115743;27;20382;-78
2022/03/21 04:23:20;;;;;;;32.17;19.13;;;39.30;2201.60;;;;;;5115560;27;20030;-78
2022/03/21 04:25:47;;;;;;;31.13;18.70;;;64.00;2201.60;;;;;;5115930;27;20035;-78
2022/03/21 04:28:14;;;;;;;33.67;21.20;;;64.00;2201.60;;;;;;5115416;27;20119;-77
2022/03/21 04:30:41;;;;;;;32.42;20.63;;;39.30;2201.60;;;;;;5133530;27;20385;-77
2022/03/21 04:33:10;;;;;;;43.33;22.02;;;39.30;2201.60;;;;;;5111804;28;20024;-77
2022/03/21 04:35:37;;;;;;;48.40;26.83;;;39.30;2201.60;;;;;;5113501;28;20103;-78
2022/03/21 04:38:03;;;;;;;36.53;23.83;;;39.30;2201.60;;;;;;5113197;28;20024;-77
2022/03/21 04:40:30;;;;;;;39.42;24.45;;;39.30;2201.60;;;;;;5111689;28;20090;-77
2022/03/21 04:42:55;;;;;;;49.92;27.13;;;64.00;2201.60;;;;;;5111879;28;20026;-77
2022/03/21 04:45:21;;;;;;;68.68;37.30;;;64.10;2201.60;;;;;;5112998;28;20031;-76
2022/03/21 04:47:47;;;;;;;44.40;23.45;;;64.00;2201.60;;;;;;5111848;28;20051;-78
2022/03/21 04:50:14;;;;;;;48.67;23.05;;;64.10;2201.60;;;;;;5112586;28;20046;-78
2022/03/21 04:52:40;;;;;;;44.45;24.67;;;64.10;2201.60;;;;;;5111708;28;20027;-78
2022/03/21 04:55:09;;;;;;;43.97;24.25;;;64.10;2201.60;;;;;;5112974;28;20027;-78
2022/03/21 04:57:35;;;;;;;36.13;24.17;;;64.00;2201.60;;;;;;5113104;28;20020;-76
2022/03/21 05:00:03;;;;;;;44.60;25.80;;;64.00;2201.60;;;;;;5114138;27;20433;-77
2022/03/21 05:02:29;;;;;;;42.05;23.58;;;64.00;2201.60;;;;;;5128047;27;20019;-76
2022/03/21 05:04:55;;;;;;;63.95;34.35;;;39.30;2201.60;;;;;;5112709;27;20055;-78
2022/03/21 05:07:20;;;;;;;51.33;29.45;;;39.10;2201.60;;;;;;5132951;27;20102;-78
2022/03/21 05:09:47;;;;;;;33.72;20.17;;;39.10;2201.60;;;;;;5133402;27;20385;-77
2022/03/21 05:12:14;;;;;;;38.20;22.83;;;39.10;2201.60;;;;;;5114743;27;20069;-76
2022/03/21 05:14:40;;;;;;;38.05;22.90;;;39.10;2201.60;;;;;;5132188;27;20030;-77
2022/03/21 05:17:05;;;;;;;54.20;31.77;;;39.00;2201.60;;;;;;5114564;27;20023;-77
2022/03/21 05:19:37;;;;;;;52.20;31.30;;;38.90;2201.60;;;;;;5132665;27;20072;-76
2022/03/21 05:22:06;;;;;;;70.40;35.03;;;38.90;2201.60;;;;;;5094274;28;20034;-77
2022/03/21 05:32:45;;;;;;;196.75;98.72;;;38.70;2201.60;;;;;;5112212;28;19910;-77
2022/03/21 05:37:55;;;;;;;114.85;64.47;;;38.60;2201.60;;;;;;5112099;28;20096;-77
2022/03/21 05:40:34;;;;;;;105.05;54.00;;;38.50;2201.60;;;;;;5093750;28;20044;-76
2022/03/21 05:43:01;;;;;;;91.25;53.08;;;38.50;2201.60;;;;;;5093931;28;20093;-77
2022/03/21 05:45:28;;;;;;;92.38;48.50;;;38.40;2201.60;;;;;;5112289;28;20042;-80
2022/03/21 05:50:39;;;;;;;85.20;50.20;;;13.70;2201.60;;;;;;5116479;28;20539;-78
2022/03/21 05:53:08;;;;;;;94.45;55.60;;;13.50;2201.60;;;;;;5133023;28;20028;-78
2022/03/21 05:55:35;;;;;;;97.38;52.33;;;13.60;2201.60;;;;;;5114118;28;20031;-82
2022/03/21 05:58:01;;;;;;;90.32;48.90;;;13.40;2201.60;;;;;;5114471;28;20023;-85
2022/03/21 06:00:27;;;;;;;92.90;46.53;;;13.20;2201.60;;;;;;5132523;28;20023;-79
2022/03/21 06:02:53;;;;;;;47.25;26.05;;;13.20;2201.60;;;;;;5135078;27;20485;-82
2022/03/21 06:05:20;;;;;;;39.65;18.52;;;13.20;2201.60;;;;;;5118220;27;20126;-83
2022/03/21 06:07:47;;;;;;;36.35;22.08;;;13.20;2201.60;;;;;;5136935;27;20391;-81
2022/03/21 06:10:13;;;;;;;38.50;23.05;;;13.10;2201.60;;;;;;5136937;27;20110;-87
2022/03/21 06:12:42;;;;;;;38.22;21.15;;;13.10;2201.60;;;;;;5137247;27;20059;-86
2022/03/21 06:15:08;;;;;;;39.42;22.60;;;13.20;2201.60;;;;;;5118511;27;20072;-81
2022/03/21 06:17:38;;;;;;;45.38;22.05;;;13.20;2201.60;;;;;;5129577;27;20019;-81
2022/03/21 06:20:10;;;;;;;53.30;26.75;;;13.00;2201.60;;;;;;5116053;28;20500;-81
2022/03/21 06:22:36;;;;;;;55.20;27.65;;;12.90;2201.60;;;;;;5116160;28;20042;-78
2022/03/21 06:25:03;;;;;;;48.58;24.88;;;0.00;2201.60;;;;;;5118682;27;20039;-81
2022/03/21 06:27:29;;;;;;;46.58;25.13;;;0.20;2201.60;;;;;;5112818;27;20059;-86
2022/03/21 06:29:55;;;;;;;42.63;26.20;;;0.20;2201.60;;;;;;5115706;28;20058;-79
2022/03/21 06:32:21;;;;;;;51.58;25.38;;;0.10;2201.60;;;;;;5122370;27;20584;-78
2022/03/21 06:34:47;;;;;;;44.33;25.17;;;0.20;2201.60;;;;;;5136669;27;20049;-79
2022/03/21 06:37:13;;;;;;;47.30;26.17;;;0.30;2201.60;;;;;;5136419;27;20068;-78
2022/03/21 06:39:39;;;;;;;44.30;24.13;;;0.40;2201.60;;;;;;5135879;27;20047;-77
2022/03/21 06:42:06;;;;;;;40.92;24.58;;;0.70;2201.60;;;;;;5136026;27;20058;-77
2022/03/21 06:44:31;;;;;;;46.80;24.02;;;0.60;2201.60;;;;;;5117454;27;20091;-79
2022/03/21 06:46:58;;;;;;;46.40;23.95;;;0.70;2176.00;;;;;;5135837;27;20027;-78
2022/03/21 06:49:29;;;;;;;38.72;22.90;;;0.70;2201.60;;;;;;5117425;27;20019;-77
2022/03/21 06:51:56;;;;;;;32.15;20.77;;;0.80;2150.40;;;;;;5135535;27;20024;-79
2022/03/21 06:54:22;;;;;;;38.00;22.75;;;0.80;2150.40;;;;;;5136129;27;20103;-80
2022/03/21 06:56:48;;;;;;;37.97;22.98;;;0.90;2150.40;;;;;;5117315;27;20023;-81
2022/03/21 06:59:13;;;;;;;39.03;24.33;;;25.60;2124.80;;;;;;5135973;27;20488;-83
2022/03/21 07:01:39;;;;;;;55.15;25.42;;;25.90;2048.00;;;;;;5118004;27;20027;-80
2022/03/21 07:04:05;;;;;;;54.63;27.60;;;26.30;1996.80;;;;;;5117621;27;20126;-83
2022/03/21 07:06:31;;;;;;;45.40;25.52;;;26.50;1945.60;;;;;;5135707;27;20473;-84
2022/03/21 07:08:57;;;;;;;43.38;24.20;;;51.40;1920.00;;;;;;5116710;27;20027;-79
2022/03/21 07:11:22;;;;;;;49.13;24.77;;;51.50;1894.40;;;;;;5117170;27;20030;-81
2022/03/21 07:13:49;;;;;;;48.90;26.00;;;51.60;1868.80;;;;;;5135150;27;20125;-79
2022/03/21 07:16:16;;;;;;;44.20;25.17;;;51.70;1843.20;;;;;;5135371;27;20031;-82
2022/03/21 07:18:42;;;;;;;41.78;24.60;;;51.90;1817.60;;;;;;5117166;27;20026;-83
2022/03/21 07:21:09;;;;;;;44.03;25.60;;;52.00;1792.00;;;;;;5135282;27;20054;-81
2022/03/21 07:23:34;;;;;;;51.55;26.73;;;52.10;1792.00;;;;;;5116730;27;20030;-81
2022/03/21 07:26:02;;;;;;;53.95;29.10;;;76.90;1766.40;;;;;;5116683;27;20023;-82
2022/03/21 07:28:28;;;;;;;60.67;33.47;;;77.00;1766.40;;;;;;5116453;27;20557;-77
2022/03/21 07:30:54;;;;;;;73.60;42.30;;;77.10;1766.40;;;;;;5135353;27;20098;-80
2022/03/21 07:33:19;;;;;;;72.25;40.92;;;77.20;1766.40;;;;;;5135180;27;20023;-80
2022/03/21 07:35:45;;;;;;;62.55;35.53;;;77.30;1740.80;;;;;;5134650;27;20026;-83
2022/03/21 07:38:10;;;;;;;56.05;31.63;;;77.40;1715.20;;;;;;5134763;27;20488;-79
2022/03/21 07:40:36;;;;;;;73.15;36.30;;;77.50;1689.60;;;;;;5134477;27;20047;-79
2022/03/21 07:43:02;;;;;;;49.28;29.27;;;77.60;1664.00;;;;;;5134474;27;20023;-79
2022/03/21 07:48:12;;;;;;;63.60;33.13;;;102.40;1664.00;;;;;;5134779;27;20529;-81
2022/03/21 07:50:38;;;;;;;66.68;36.13;;;102.50;1664.00;;;;;;5116518;27;20027;-79
2022/03/21 07:53:04;;;;;;;70.10;34.47;;;102.70;1689.60;;;;;;5134784;27;20489;-81
2022/03/21 07:55:33;;;;;;;93.03;35.95;;;102.70;1664.00;;;;;;5116327;27;20587;-85
2022/03/21 07:58:00;;;;;;;65.70;32.72;;;102.80;1612.80;;;;;;5116164;27;20385;-80
2022/03/21 08:00:27;;;;;;;53.22;29.23;;;102.90;1612.80;;;;;;5115951;27;20023;-82
2022/03/21 08:02:53;;;;;;;55.10;29.73;;;102.90;1612.80;;;;;;5116255;27;20019;-81
2022/03/21 08:05:19;;;;;;;64.00;31.98;;;103.00;1587.20;;;;;;5116017;27;20038;-81
2022/03/21 08:07:45;;;;;;;67.18;36.53;;;103.20;1587.20;;;;;;5115942;27;20023;-80
2022/03/21 08:10:11;;;;;;;69.63;35.63;;;128.00;1587.20;;;;;;5115663;27;20030;-84
2022/03/21 08:12:43;;;;;;;51.33;31.60;;;128.00;1561.60;;;;;;5116235;27;20107;-81
2022/03/21 08:15:12;;;;;;;50.20;30.45;;;128.20;1561.60;;;;;;5115602;27;20038;-81
2022/03/21 08:17:51;;;;;;;53.63;29.13;;;128.40;1510.40;;;;;;5097098;28;20038;-82
2022/03/21 08:20:20;;;;;;;43.72;26.30;;;128.40;1484.80;;;;;;5113890;28;20031;-81
2022/03/21 08:22:47;;;;;;;49.92;27.88;;;128.30;1510.40;;;;;;5095325;28;20105;-79
2022/03/21 08:25:15;;;;;;;59.20;25.55;;;128.40;1510.40;;;;;;5112689;28;20027;-80
2022/03/21 08:27:43;;;;;;;44.97;26.50;;;;;;;;;;5095125;28;20023;-78
2022/03/21 08:30:10;;;;;;;44.28;24.80;;;;;;;;;;5094999;28;20478;-77
2022/03/21 08:32:36;;;;;;;40.63;22.27;;;;;;;;;;5094827;28;20110;-77
2022/03/21 08:35:02;;;;;;;37.78;22.92;;;;;;;;;;5095095;28;20027;-79
2022/03/21 08:37:28;;;;;;;35.30;20.80;;;;;;;;;;5113164;28;20051;-76
2022/03/21 08:39:54;;;;;;;41.40;20.15;;;;;;;;;;5112611;28;20043;-75
2022/03/21 08:42:20;;;;;;;39.13;22.70;;;;;;;;;;5113092;28;20076;-76
2022/03/21 08:44:46;;;;;;;37.80;20.83;;;;;;;;;;5094582;28;20092;-76
2022/03/21 08:47:12;;;;;;;40.20;21.70;;;;;;;;;;5094680;28;20051;-76
2022/03/21 08:49:38;;;;;;;41.88;21.63;;;;;;;;;;5094639;28;20015;-75
2022/03/21 08:52:06;;;;;;;34.90;21.38;;;;;;;;;;5094215;28;20079;-76
2022/03/21 08:54:32;;;;;;;30.45;17.42;;;;;;;;;;5094483;28;20019;-75
2022/03/21 08:56:58;;;;;;;21.38;13.60;;;179.80;1203.20;;;;;;5094508;28;20473;-75
2022/03/21 08:59:27;;;;;;;31.27;19.40;;;179.60;1177.60;;;;;;5094477;28;20020;-76
2022/03/21 09:01:53;;;;;;;35.28;24.10;;;179.50;1203.20;;;;;;5112647;28;20047;-75
2022/03/21 09:04:18;;;;;;;35.60;23.63;;;179.50;1228.80;;;;;;5094314;28;20463;-76
2022/03/21 09:06:44;;;;;;;38.85;22.92;;;179.80;1203.20;;;;;;5094190;28;20028;-76
2022/03/21 09:09:10;;;;;;;38.72;19.10;;;180.00;1203.20;;;;;;5094283;28;20023;-76
2022/03/21 09:11:37;;;;;;;24.45;14.40;;;180.10;1177.60;;;;;;5112506;28;20024;-74
2022/03/21 09:14:03;;;;;;;24.20;16.52;;;204.90;1177.60;;;;;;5112846;28;20016;-76
2022/03/21 09:16:30;;;;;;;24.80;13.98;;;205.00;1152.00;;;;;;5094083;28;20023;-76
2022/03/21 09:18:55;;;;;;;21.35;13.30;;;205.20;1126.40;;;;;;5094003;28;20454;-76
2022/03/21 09:21:21;;;;;;;45.20;19.83;;;205.10;1126.40;;;;;;5112125;28;20056;-76
2022/03/21 09:23:47;;;;;;;30.58;15.57;;;205.40;1152.00;;;;;;5111850;28;20032;-75
2022/03/21 09:26:13;;;;;;;30.73;17.65;;;205.40;1177.60;;;;;;5093879;28;20019;-76
2022/03/21 09:28:43;;;;;;;32.08;19.05;;;205.60;1152.00;;;;;;5112189;28;20511;-76
2022/03/21 09:31:10;;;;;;;35.25;17.23;;;205.70;1177.60;;;;;;5112200;28;20077;-76
2022/03/21 09:33:37;;;;;;;29.38;15.40;;;205.70;1126.40;;;;;;5112312;28;20466;-76
2022/03/21 09:36:06;;;;;;;26.38;15.98;;;205.60;1075.20;;;;;;5114091;28;20030;-76
2022/03/21 09:38:31;;;;;;;22.10;13.88;;;205.60;1100.80;;;;;;5118860;28;20040;-76
2022/03/21 09:40:59;;;;;;;21.38;14.15;;;205.60;1100.80;;;;;;5118903;28;20065;-76
2022/03/21 09:43:26;;;;;;;20.00;13.45;;;230.70;1100.80;;;;;;5100332;28;20470;-77
2022/03/21 09:45:53;;;;;;;21.38;14.15;;;;;;;;;;5100507;28;20040;-76
2022/03/21 09:48:19;;;;;;;20.05;12.77;;;;;;;;;;5118660;28;20394;-76
2022/03/21 09:50:46;;;;;;;22.52;15.80;;;;;;;;;;5118875;28;20177;-76
2022/03/21 09:53:15;;;;;;;22.42;15.02;;;;;;;;;;5119204;28;20031;-76
2022/03/21 09:55:41;;;;;;;27.95;12.68;;;;;;;;;;5118565;28;20016;-76
2022/03/21 09:58:10;;;;;;;25.80;16.42;;;231.20;998.40;;;;;;5100521;28;20062;-76
2022/03/21 10:00:39;;;;;;;19.33;13.80;;;231.30;972.80;;;;;;5100467;28;20123;-77
2022/03/21 10:03:06;;;;;;;19.55;14.48;;;231.30;1024.00;;;;;;5100569;28;20024;-76
2022/03/21 10:05:36;;;;;;;22.80;14.13;;;;;;;;;;5100462;28;20063;-75
2022/03/21 10:08:21;;;;;;;21.45;14.90;;;;;;;;;;5118415;27;20023;-75
2022/03/21 10:10:51;;;;;;;24.92;14.10;;;;;;;;;;5117683;27;20016;-76
2022/03/21 10:13:18;;;;;;;27.88;16.38;;;;;;;;;;5120302;27;20024;-75
2022/03/21 10:15:44;;;;;;;25.20;13.93;;;;;;;;;;5123379;27;20020;-76
2022/03/21 10:18:11;;;;;;;24.10;13.85;;;;;;;;;;5138866;27;20425;-75
2022/03/21 10:20:38;;;;;;;25.63;14.45;;;;;;;;;;5120638;27;20019;-76
2022/03/21 10:23:17;;;;;;;23.33;15.02;;;;;;;;;;5138911;27;20015;-75
2022/03/21 10:25:44;;;;;;;24.75;14.43;;;;;;;;;;5138941;27;20037;-76
2022/03/21 10:28:10;;;;;;;27.58;16.25;;;;;;;;;;5120273;27;20043;-75
2022/03/21 10:30:46;;;;;;;20.20;14.68;;;;;;;;;;5138794;27;20090;-76
2022/03/21 10:33:12;;;;;;;22.23;13.98;;;;;;;;;;5137970;27;20067;-77
2022/03/21 10:35:48;;;;;;;20.42;14.25;;;;;;;;;;5138805;27;20058;-75
2022/03/21 10:38:28;;;;;;;33.88;15.32;;;;;;;;;;5120550;27;20058;-75
2022/03/21 10:40:54;;;;;;;21.02;15.15;;;;;;;;;;5138847;27;20031;-75
2022/03/21 10:43:20;;;;;;;20.77;13.90;;;;;;;;;;5135910;27;20474;-75
2022/03/21 10:45:56;;;;;;;16.38;12.55;;;;;;;;;;5117865;28;20044;-76
2022/03/21 10:48:27;;;;;;;21.35;13.77;;;;;;;;;;5115530;28;20100;-75
2022/03/21 10:50:54;;;;;;;28.55;16.30;;;;;;;;;;5115065;28;20120;-76
2022/03/21 10:53:20;;;;;;;21.45;13.52;;;;;;;;;;5115038;28;20043;-76
2022/03/21 10:55:47;;;;;;;21.38;14.93;;;;;;;;;;5114076;28;20479;-76
2022/03/21 10:58:16;;;;;;;24.17;15.68;;;307.40;947.20;;;;;;5113631;28;20441;-75
2022/03/21 11:00:42;;;;;;;30.77;17.30;;;;;;;;;;5114266;28;20020;-76
2022/03/21 11:03:15;;;;;;;27.38;17.50;;;358.40;870.40;;;;;;5113603;28;20444;-76
2022/03/21 11:05:43;;;;;;;18.80;13.70;;;;;;;;;;5114467;27;20071;-75
2022/03/21 11:08:11;;;;;;;27.05;16.40;;;384.10;819.20;;;;;;5095766;27;20047;-76
2022/03/21 11:10:37;;;;;;;24.02;14.70;;;384.10;819.20;;;;;;5114032;28;20051;-75
2022/03/21 11:13:06;;;;;;;22.27;15.93;;;;;;;;;;5113567;28;20470;-76
2022/03/21 11:15:35;;;;;;;19.35;13.18;;;384.30;844.80;;;;;;5114202;27;20016;-75
2022/03/21 11:18:01;;;;;;;20.05;14.88;;;384.80;793.60;;;;;;5114583;27;20023;-75
2022/03/21 11:20:30;;;;;;;21.77;15.18;;;409.60;819.20;;;;;;5114505;28;20023;-75
2022/03/21 11:23:01;;;;;;;20.55;15.60;;;410.10;793.60;;;;;;5114307;28;20074;-75
2022/03/21 11:25:37;;;;;;;27.40;17.95;;;435.70;742.40;;;;;;5114497;28;20046;-76
2022/03/21 11:28:27;;;;;;;19.23;15.15;;;435.70;742.40;;;;;;5114551;28;20136;-75
2022/03/21 11:31:17;;;;;;;18.08;14.40;;;435.20;768.00;;;;;;5095890;28;20050;-76
2022/03/21 11:33:49;;;;;;;24.90;15.70;;;;;;;;;;5096144;28;20481;-76
2022/03/21 11:36:14;;;;;;;24.70;14.35;;;435.60;742.40;;;;;;5113901;28;20030;-75
2022/03/21 11:38:46;;;;;;;25.17;12.48;;;410.30;793.60;;;;;;5095736;28;20401;-75
2022/03/21 11:41:21;;;;;;;15.82;11.40;;;359.10;793.60;;;;;;5114239;28;20670;-76
2022/03/21 11:44:07;;;;;;;16.83;13.07;;;333.40;819.20;;;;;;5095743;28;20371;-75
2022/03/21 11:46:39;;;;;;;27.38;14.98;;;359.00;768.00;;;;;;5095437;28;20057;-75
2022/03/21 11:49:28;;;;;;;15.43;11.48;;;359.10;793.60;;;;;;5095606;28;20032;-77
2022/03/21 11:52:01;;;;;;;19.63;13.40;;;384.90;742.40;;;;;;5085832;28;20036;-76
2022/03/21 11:54:35;;;;;;;19.83;11.32;;;358.90;793.60;;;;;;5113983;28;20046;-77
2022/03/21 11:57:25;;;;;;;16.23;10.20;;;333.20;844.80;;;;;;5114049;28;20077;-75
2022/03/21 11:59:53;;;;;;;22.48;12.90;;;307.50;844.80;;;;;;5084510;28;20486;-76
2022/03/21 12:02:19;;;;;;;23.67;11.85;;;333.10;844.80;;;;;;5113494;27;20027;-76
2022/03/21 12:05:03;;;;;;;16.73;11.05;;;333.30;844.80;;;;;;5113303;28;20043;-76
2022/03/21 12:07:30;;;;;;;27.48;16.23;;;333.60;793.60;;;;;;5113303;28;20077;-75
2022/03/21 12:09:57;;;;;;;12.07;8.30;;;384.80;742.40;;;;;;5113614;28;20074;-75
2022/03/21 12:12:46;;;;;;;20.15;12.95;;;332.80;844.80;;;;;;5113283;28;20031;-78
2022/03/21 12:15:31;;;;;;;18.15;12.90;;;;;;;;;;5101084;28;20042;-76
2022/03/21 12:17:58;;;;;;;22.42;15.75;;;333.50;844.80;;;;;;5094331;28;20027;-76
2022/03/21 12:20:23;;;;;;;22.17;14.48;;;333.50;870.40;;;;;;5112909;28;20024;-75
2022/03/21 12:22:52;;;;;;;31.88;19.80;;;358.40;844.80;;;;;;5113260;28;20039;-76
2022/03/21 12:25:42;;;;;;;19.23;12.63;;;358.60;819.20;;;;;;5113131;28;20042;-78
2022/03/21 12:29:31;;;;;;;18.05;11.98;;;358.90;793.60;;;;;;5084547;28;20032;-77
2022/03/21 12:31:27;;;;;;;23.52;17.02;;;410.00;742.40;;;;;;5112674;28;20466;-75
2022/03/21 12:34:13;;;;;;;16.05;12.75;;;410.00;742.40;;;;;;5111944;28;20055;-75
2022/03/21 12:36:39;;;;;;;17.73;10.43;;;435.80;716.80;;;;;;5114759;27;20494;-77
2022/03/21 12:39:18;;;;;;;19.58;15.07;;;461.30;691.20;;;;;;5094541;28;20077;-78
2022/03/21 12:41:45;;;;;;;15.63;12.02;;;409.70;742.40;;;;;;5113074;28;20454;-77
2022/03/21 12:44:13;;;;;;;27.30;14.38;;;359.30;742.40;;;;;;5094563;28;20046;-76
2022/03/21 12:46:39;;;;;;;27.02;14.05;;;384.80;742.40;;;;;;5112043;28;20046;-76